createdAt,value
2023-05-24T00:00:43.296Z,7.43
2023-05-24T00:03:10.346Z,7.82
2023-05-24T00:05:37.926Z,7.20
2023-05-24T00:08:05.099Z,7.72
2023-05-24T00:10:31.871Z,7.15
2023-05-24T00:12:58.685Z,8.18
2023-05-24T00:15:25.824Z,7.97
2023-05-24T00:17:52.629Z,7.13
2023-05-24T00:20:21.110Z,7.75
2023-05-24T00:22:48.060Z,8.18
2023-05-24T00:25:14.847Z,7.68
2023-05-24T00:27:41.674Z,8.30
2023-05-24T00:30:08.722Z,7.75
2023-05-24T00:32:35.791Z,7.82
2023-05-24T00:35:03.259Z,7.57
2023-05-24T00:37:30.144Z,7.57
2023-05-24T00:39:56.971Z,7.85
2023-05-24T00:42:23.926Z,7.25
2023-05-24T00:44:50.718Z,7.78
2023-05-24T00:47:17.705Z,7.00
2023-05-24T00:49:44.673Z,6.82
2023-05-24T00:52:11.604Z,7.15
2023-05-24T00:54:40.873Z,7.32
2023-05-24T00:57:08.001Z,7.45
2023-05-24T00:59:34.792Z,7.78
2023-05-24T01:02:01.801Z,7.78
2023-05-24T01:04:28.831Z,8.43
2023-05-24T01:07:14.607Z,7.45
2023-05-24T01:10:01.645Z,8.02
2023-05-24T01:12:53.764Z,7.35
2023-05-24T01:15:43.754Z,7.25
2023-05-24T01:18:22.274Z,7.53
2023-05-24T01:20:56.470Z,7.50
2023-05-24T01:23:34.440Z,7.97
2023-05-24T01:26:17.639Z,6.93
2023-05-24T01:28:45.715Z,6.95
2023-05-24T01:31:14.745Z,7.68
2023-05-24T01:33:44.810Z,7.00
2023-05-24T01:36:11.719Z,6.90
2023-05-24T01:38:40.209Z,7.32
2023-05-24T01:41:21.631Z,7.75
2023-05-24T01:44:16.187Z,7.05
2023-05-24T01:46:47.930Z,6.35
2023-05-24T01:49:29.805Z,6.25
2023-05-24T01:52:04.292Z,6.75
2023-05-24T01:54:38.980Z,6.18
2023-05-24T01:57:09.258Z,6.43
2023-05-24T01:59:38.288Z,6.28
2023-05-24T02:02:05.828Z,6.13
2023-05-24T02:04:32.760Z,6.68
2023-05-24T02:06:59.498Z,7.03
2023-05-24T02:09:26.340Z,7.75
2023-05-24T02:11:53.306Z,7.10
2023-05-24T02:14:20.673Z,7.25
2023-05-24T02:16:47.965Z,6.78
2023-05-24T02:19:15.192Z,7.63
2023-05-24T02:21:42.283Z,6.30
2023-05-24T02:24:11.430Z,6.20
2023-05-24T02:26:39.280Z,6.60
2023-05-24T02:29:06.510Z,7.03
2023-05-24T02:31:33.524Z,6.47
2023-05-24T02:34:00.422Z,6.38
2023-05-24T02:36:27.648Z,6.53
2023-05-24T02:38:54.451Z,6.20
2023-05-24T02:41:22.210Z,5.97
2023-05-24T02:43:49.113Z,5.90
2023-05-24T02:46:17.091Z,5.82
2023-05-24T02:48:43.918Z,5.70
2023-05-24T02:51:10.853Z,4.95
2023-05-24T02:53:37.575Z,4.97
2023-05-24T02:56:04.362Z,5.15
2023-05-24T02:58:31.106Z,4.13
2023-05-24T03:00:57.867Z,4.50
2023-05-24T03:03:25.126Z,4.72
2023-05-24T03:05:52.281Z,4.95
2023-05-24T03:08:19.011Z,5.43
2023-05-24T03:10:45.968Z,4.53
2023-05-24T03:13:12.717Z,4.47
2023-05-24T03:15:39.431Z,5.05
2023-05-24T03:18:06.201Z,4.55
2023-05-24T03:20:33.986Z,4.65
2023-05-24T03:23:01.042Z,4.95
2023-05-24T03:25:27.850Z,5.32
2023-05-24T03:27:54.685Z,5.40
2023-05-24T03:30:22.290Z,5.45
2023-05-24T03:32:49.894Z,5.50
2023-05-24T03:35:16.940Z,5.15
2023-05-24T03:37:43.891Z,4.93
2023-05-24T03:40:11.063Z,5.35
2023-05-24T03:42:38.581Z,5.45
2023-05-24T03:45:06.071Z,5.30
2023-05-24T03:47:32.888Z,5.32
2023-05-24T03:49:59.643Z,5.53
2023-05-24T03:52:26.458Z,6.22
2023-05-24T03:54:53.196Z,5.00
2023-05-24T03:57:20.254Z,5.72
2023-05-24T03:59:47.064Z,5.20
2023-05-24T04:02:13.942Z,5.93
2023-05-24T04:04:40.773Z,5.55
2023-05-24T04:07:08.249Z,5.22
2023-05-24T04:09:34.981Z,5.72
2023-05-24T04:12:02.230Z,4.95
2023-05-24T04:14:28.972Z,5.50
2023-05-24T04:16:55.926Z,5.60
2023-05-24T04:19:23.135Z,5.18
2023-05-24T04:21:50.539Z,5.07
2023-05-24T04:24:17.411Z,5.03
2023-05-24T04:26:44.854Z,5.10
2023-05-24T04:29:11.584Z,4.90
2023-05-24T04:31:38.455Z,4.40
2023-05-24T04:34:07.403Z,4.30
2023-05-24T04:36:35.591Z,4.05
2023-05-24T04:39:05.042Z,4.03
2023-05-24T04:41:32.304Z,4.30
2023-05-24T04:44:01.786Z,4.70
2023-05-24T04:46:28.821Z,3.97
2023-05-24T04:48:55.799Z,4.30
2023-05-24T04:51:23.197Z,4.10
2023-05-24T04:53:50.021Z,4.07
2023-05-24T04:56:17.177Z,4.70
2023-05-24T04:58:44.095Z,4.03
2023-05-24T05:01:11.008Z,4.45
2023-05-24T05:03:37.906Z,3.70
2023-05-24T05:06:05.030Z,4.45
2023-05-24T05:08:31.822Z,4.65
2023-05-24T05:10:58.768Z,5.25
2023-05-24T05:13:25.683Z,5.20
2023-05-24T05:15:52.657Z,5.63
2023-05-24T05:18:19.626Z,5.05
2023-05-24T05:20:46.741Z,5.65
2023-05-24T05:23:13.760Z,6.00
2023-05-24T05:25:40.748Z,6.68
2023-05-24T05:28:07.467Z,5.78
2023-05-24T05:30:34.249Z,6.82
2023-05-24T05:33:01.726Z,6.82
2023-05-24T05:35:28.574Z,7.28
2023-05-24T05:37:55.271Z,7.15
2023-05-24T05:40:22.087Z,6.78
2023-05-24T05:42:49.999Z,7.30
2023-05-24T05:45:16.968Z,6.90
2023-05-24T05:47:43.840Z,6.30
2023-05-24T05:50:11.039Z,6.63
2023-05-24T05:52:37.806Z,7.78
2023-05-24T05:55:04.896Z,7.00
2023-05-24T05:57:31.624Z,7.45
2023-05-24T05:59:58.384Z,7.65
2023-05-24T06:02:25.266Z,8.48
2023-05-24T06:04:52.136Z,7.22
2023-05-24T06:07:18.911Z,7.85
2023-05-24T06:09:45.780Z,7.22
2023-05-24T06:12:12.551Z,7.82
2023-05-24T06:14:39.356Z,7.70
2023-05-24T06:17:07.117Z,7.35
2023-05-24T06:19:33.988Z,7.40
2023-05-24T06:22:01.514Z,7.63
2023-05-24T06:24:28.720Z,7.78
2023-05-24T06:26:55.922Z,7.05
2023-05-24T06:29:22.940Z,6.90
2023-05-24T06:31:50.461Z,6.80
2023-05-24T06:34:21.060Z,6.28
2023-05-24T06:36:48.544Z,6.63
2023-05-24T06:39:16.491Z,6.80
2023-05-24T06:41:44.543Z,6.22
2023-05-24T06:44:11.470Z,6.47
2023-05-24T06:46:38.324Z,6.82
2023-05-24T06:49:05.270Z,7.22
2023-05-24T06:51:33.911Z,7.95
2023-05-24T06:54:01.015Z,7.70
2023-05-24T06:56:28.905Z,7.63
2023-05-24T06:58:56.625Z,7.68
2023-05-24T07:01:23.443Z,8.02
2023-05-24T07:03:50.314Z,7.60
2023-05-24T07:06:17.239Z,7.57
2023-05-24T07:08:44.004Z,8.02
2023-05-24T07:11:11.009Z,7.80
2023-05-24T07:13:37.717Z,7.80
2023-05-24T07:16:04.669Z,7.25
2023-05-24T07:18:31.621Z,7.43
2023-05-24T07:20:58.416Z,7.97
2023-05-24T07:23:25.223Z,7.68
2023-05-24T07:25:52.149Z,7.50
2023-05-24T07:28:20.250Z,7.78
2023-05-24T07:30:47.326Z,8.02
2023-05-24T07:33:14.340Z,7.05
2023-05-24T07:35:41.895Z,7.13
2023-05-24T07:38:08.907Z,6.80
2023-05-24T07:40:35.654Z,7.40
2023-05-24T07:43:04.017Z,6.30
2023-05-24T07:45:31.760Z,6.63
2023-05-24T07:47:58.787Z,6.28
2023-05-24T07:50:26.483Z,6.30
2023-05-24T07:52:53.428Z,6.10
2023-05-24T07:55:20.567Z,5.20
2023-05-24T07:57:47.719Z,5.65
2023-05-24T08:00:15.143Z,5.80
2023-05-24T08:02:46.457Z,6.07
2023-05-24T08:07:41.801Z,5.80
2023-05-24T08:10:14.066Z,5.53
2023-05-24T08:12:41.811Z,4.70
2023-05-24T08:15:09.188Z,4.85
2023-05-24T08:17:36.866Z,5.43
2023-05-24T08:20:08.889Z,4.75
2023-05-24T08:22:37.370Z,5.28
2023-05-24T08:25:04.426Z,5.00
2023-05-24T08:27:31.232Z,5.13
2023-05-24T08:29:57.992Z,4.75
2023-05-24T08:32:25.214Z,4.85
2023-05-24T08:35:00.307Z,4.75
2023-05-24T08:37:32.016Z,5.22
2023-05-24T08:39:59.198Z,4.75
2023-05-24T08:42:27.706Z,4.97
2023-05-24T08:45:03.095Z,5.20
2023-05-24T08:47:31.220Z,4.97
2023-05-24T08:49:58.890Z,4.85
2023-05-24T08:52:26.630Z,4.88
2023-05-24T08:54:53.818Z,4.50
2023-05-24T08:57:21.621Z,4.40
2023-05-24T08:59:48.370Z,4.80
2023-05-24T09:02:16.482Z,4.90
2023-05-24T09:04:46.488Z,4.75
2023-05-24T09:07:14.877Z,4.57
2023-05-24T09:09:46.785Z,3.95
2023-05-24T09:12:28.278Z,4.75
2023-05-24T09:15:03.751Z,4.90
2023-05-24T09:17:35.245Z,4.63
2023-05-24T09:20:02.756Z,4.55
2023-05-24T09:22:30.885Z,5.38
2023-05-24T09:25:00.340Z,4.95
2023-05-24T09:27:27.832Z,5.22
2023-05-24T09:29:55.779Z,5.20
2023-05-24T09:32:26.289Z,4.78
2023-05-24T09:34:54.039Z,4.63
2023-05-24T09:37:28.151Z,4.90
2023-05-24T09:39:58.398Z,4.55
2023-05-24T09:42:30.363Z,4.53
2023-05-24T09:45:01.620Z,4.50
2023-05-24T09:49:56.552Z,3.85
2023-05-24T09:52:23.289Z,3.42
2023-05-24T09:54:50.244Z,4.15
2023-05-24T09:57:17.638Z,3.55
2023-05-24T09:59:44.701Z,4.03
2023-05-24T10:02:12.502Z,4.25
2023-05-24T10:04:40.283Z,4.10
2023-05-24T10:07:08.124Z,4.35
2023-05-24T10:09:35.814Z,4.00
2023-05-24T10:12:04.960Z,4.25
2023-05-24T10:14:39.053Z,4.57
2023-05-24T10:17:09.168Z,4.55
2023-05-24T10:19:37.580Z,4.95
2023-05-24T10:22:11.674Z,4.30
2023-05-24T10:24:47.746Z,4.90
2023-05-24T10:27:18.386Z,4.30
2023-05-24T10:29:56.801Z,6.18
2023-05-24T10:32:25.294Z,5.03
2023-05-24T10:34:54.073Z,4.20
2023-05-24T10:37:21.421Z,4.40
2023-05-24T10:39:48.137Z,4.03
2023-05-24T10:42:14.999Z,3.70
2023-05-24T10:44:42.137Z,3.88
2023-05-24T10:47:13.124Z,4.32
2023-05-24T10:49:54.279Z,3.97
2023-05-24T10:52:21.304Z,4.15
2023-05-24T10:55:09.964Z,3.78
2023-05-24T10:57:38.395Z,3.78
2023-05-24T11:00:34.505Z,3.55
2023-05-24T11:03:14.145Z,3.90
2023-05-24T11:05:49.364Z,4.18
2023-05-24T11:08:43.648Z,5.07
2023-05-24T11:13:43.601Z,5.07
2023-05-24T11:16:30.388Z,5.85
2023-05-24T11:18:57.135Z,5.15
2023-05-24T11:21:24.307Z,5.00
2023-05-24T11:23:51.520Z,4.82
2023-05-24T11:26:18.604Z,4.45
2023-05-24T11:28:47.433Z,4.03
2023-05-24T11:31:14.795Z,4.57
2023-05-24T11:33:42.589Z,4.00
2023-05-24T11:36:09.767Z,3.85
2023-05-24T11:38:37.661Z,3.80
2023-05-24T11:41:05.114Z,3.92
2023-05-24T11:43:32.013Z,3.85
2023-05-24T11:45:58.952Z,3.90
2023-05-24T11:48:26.214Z,3.97
2023-05-24T11:50:53.244Z,3.80
2023-05-24T11:53:21.254Z,3.28
2023-05-24T11:55:48.864Z,3.50
2023-05-24T11:58:24.854Z,2.75
2023-05-24T12:00:52.222Z,3.22
2023-05-24T12:03:19.439Z,3.00
2023-05-24T12:05:46.366Z,4.03
2023-05-24T12:08:15.497Z,3.10
2023-05-24T12:10:43.488Z,2.70
2023-05-24T12:13:21.842Z,2.83
2023-05-24T12:15:53.893Z,2.70
2023-05-24T12:18:24.444Z,3.25
2023-05-24T12:20:52.071Z,2.72
2023-05-24T12:23:25.070Z,2.60
2023-05-24T12:25:57.621Z,2.50
2023-05-24T12:28:25.016Z,2.90
2023-05-24T12:30:51.852Z,2.72
2023-05-24T12:33:21.650Z,2.90
2023-05-24T12:35:49.970Z,2.70
2023-05-24T12:38:25.118Z,2.95
2023-05-24T12:41:08.213Z,2.83
2023-05-24T12:43:40.656Z,3.05
2023-05-24T12:46:07.804Z,3.47
2023-05-24T12:48:35.277Z,3.05
2023-05-24T12:51:03.082Z,3.35
2023-05-24T12:53:30.028Z,3.10
2023-05-24T12:55:57.058Z,3.17
2023-05-24T12:58:23.952Z,2.97
2023-05-24T13:00:52.413Z,3.38
2023-05-24T13:03:19.231Z,3.28
2023-05-24T13:05:47.296Z,3.67
2023-05-24T13:08:14.861Z,3.30
2023-05-24T13:10:41.964Z,3.22
2023-05-24T13:13:08.974Z,3.10
2023-05-24T13:15:36.359Z,2.78
2023-05-24T13:18:03.271Z,3.53
2023-05-24T13:20:30.140Z,2.97
2023-05-24T13:22:57.149Z,2.53
2023-05-24T13:25:23.954Z,2.45
2023-05-24T13:27:50.865Z,3.08
2023-05-24T13:30:18.099Z,2.38
2023-05-24T13:32:45.026Z,2.60
2023-05-24T13:35:11.964Z,2.80
2023-05-24T13:37:39.196Z,2.53
2023-05-24T13:40:07.115Z,2.53
2023-05-24T13:42:33.936Z,2.50
2023-05-24T13:45:01.143Z,2.40
2023-05-24T13:47:39.408Z,2.85
2023-05-24T13:50:07.683Z,2.85
2023-05-24T13:52:35.009Z,2.60
2023-05-24T13:55:04.829Z,2.65
2023-05-24T13:57:49.621Z,2.70
2023-05-24T14:00:18.928Z,2.45
2023-05-24T14:02:46.207Z,2.75
2023-05-24T14:05:26.918Z,3.00
2023-05-24T14:07:55.929Z,2.60
2023-05-24T14:10:22.766Z,2.50
2023-05-24T14:13:03.516Z,2.47
2023-05-24T14:15:36.951Z,2.78
2023-05-24T14:18:08.505Z,2.50
2023-05-24T14:20:40.507Z,2.72
2023-05-24T14:23:07.994Z,3.08
2023-05-24T14:25:35.076Z,3.13
2023-05-24T14:28:03.723Z,2.63
2023-05-24T14:30:33.595Z,2.70
2023-05-24T14:33:03.385Z,2.97
2023-05-24T14:35:30.228Z,2.90
2023-05-24T14:37:56.972Z,2.80
2023-05-24T14:40:24.074Z,2.60
2023-05-24T14:42:51.165Z,2.92
2023-05-24T14:45:17.904Z,3.38
2023-05-24T14:47:44.941Z,2.83
2023-05-24T14:50:11.902Z,3.03
2023-05-24T14:52:38.671Z,3.17
2023-05-24T14:55:06.119Z,2.58
2023-05-24T14:57:33.061Z,3.10
2023-05-24T15:00:07.709Z,2.53
2023-05-24T15:02:34.766Z,2.70
2023-05-24T15:05:01.695Z,3.03
2023-05-24T15:07:28.536Z,2.83
2023-05-24T15:09:55.363Z,2.85
2023-05-24T15:12:23.115Z,2.55
2023-05-24T15:14:49.878Z,2.60
2023-05-24T15:17:17.303Z,2.58
2023-05-24T15:19:45.230Z,2.88
2023-05-24T15:22:12.172Z,2.85
2023-05-24T15:24:38.889Z,2.88
2023-05-24T15:27:05.835Z,2.83
2023-05-24T15:29:32.713Z,3.22
2023-05-24T15:32:01.442Z,2.92
2023-05-24T15:34:28.338Z,2.88
2023-05-24T15:36:55.214Z,3.10
2023-05-24T15:39:21.994Z,2.97
2023-05-24T15:41:48.839Z,3.30
2023-05-24T15:44:15.616Z,2.92
2023-05-24T15:46:43.421Z,3.38
2023-05-24T15:49:10.324Z,3.20
2023-05-24T15:54:06.911Z,3.50
2023-05-24T15:56:33.695Z,2.70
2023-05-24T15:59:00.634Z,3.50
2023-05-24T16:01:27.551Z,3.90
2023-05-24T16:03:54.406Z,3.50
2023-05-24T16:06:21.445Z,3.22
2023-05-24T16:08:49.434Z,3.70
2023-05-24T16:11:16.404Z,3.70
2023-05-24T16:13:43.232Z,3.75
2023-05-24T16:16:10.073Z,3.40
2023-05-24T16:18:37.152Z,2.90
2023-05-24T16:21:04.269Z,3.13
2023-05-24T16:23:30.986Z,3.38
2023-05-24T16:25:58.066Z,3.05
2023-05-24T16:28:25.112Z,3.35
2023-05-24T16:30:55.741Z,2.97
2023-05-24T16:33:23.570Z,3.10
2023-05-24T16:35:55.719Z,3.00
2023-05-24T16:38:26.151Z,3.25
2023-05-24T16:40:54.110Z,3.07
2023-05-24T16:43:21.630Z,2.88
2023-05-24T16:45:48.456Z,2.97
2023-05-24T16:48:15.728Z,3.05
2023-05-24T16:50:42.866Z,3.35
2023-05-24T16:53:09.917Z,2.70
2023-05-24T16:55:36.783Z,2.83
2023-05-24T16:58:03.847Z,3.30
2023-05-24T17:00:30.618Z,2.53
2023-05-24T17:02:59.490Z,2.70
2023-05-24T17:05:26.313Z,2.65
2023-05-24T17:07:53.092Z,2.40
2023-05-24T17:10:20.091Z,2.83
2023-05-24T17:12:47.522Z,2.85
2023-05-24T17:15:14.284Z,2.47
2023-05-24T17:17:41.322Z,2.10
2023-05-24T17:20:09.048Z,3.70
2023-05-24T17:22:35.871Z,2.30
2023-05-24T17:25:02.970Z,2.58
2023-05-24T17:27:29.949Z,1.95
2023-05-24T17:29:56.997Z,2.05
2023-05-24T17:32:23.836Z,1.70
2023-05-24T17:34:50.611Z,2.10
2023-05-24T17:37:17.312Z,1.77
2023-05-24T17:39:44.048Z,1.73
2023-05-24T17:42:10.999Z,1.67
2023-05-24T17:44:37.688Z,1.98
2023-05-24T17:47:04.874Z,1.80
2023-05-24T17:49:32.400Z,1.80
2023-05-24T17:52:01.040Z,1.48
2023-05-24T17:54:28.567Z,1.38
2023-05-24T17:56:56.684Z,1.77
2023-05-24T17:59:23.828Z,1.63
2023-05-24T18:01:51.182Z,1.63
2023-05-24T18:04:18.625Z,1.45
2023-05-24T18:06:45.960Z,1.48
2023-05-24T18:09:13.550Z,1.48
2023-05-24T18:11:40.773Z,1.65
2023-05-24T18:14:07.932Z,1.15
2023-05-24T18:16:35.324Z,1.40
2023-05-24T18:19:02.496Z,1.40
2023-05-24T18:21:29.757Z,1.48
2023-05-24T18:23:57.303Z,1.33
2023-05-24T18:26:24.446Z,1.65
2023-05-24T18:28:51.613Z,1.50
2023-05-24T18:31:20.438Z,1.42
2023-05-24T18:33:47.403Z,1.50
2023-05-24T18:36:14.145Z,1.33
2023-05-24T18:38:41.172Z,1.52
2023-05-24T18:41:11.918Z,1.63
2023-05-24T18:43:39.216Z,1.98
2023-05-24T18:46:06.162Z,1.65
2023-05-24T18:48:32.900Z,1.70
2023-05-24T18:50:59.618Z,2.10
2023-05-24T18:53:26.384Z,1.70
2023-05-24T18:55:53.121Z,1.63
2023-05-24T18:58:20.110Z,1.67
2023-05-24T19:00:47.193Z,1.80
2023-05-24T19:03:14.227Z,1.83
2023-05-24T19:05:43.574Z,1.52
2023-05-24T19:08:11.177Z,1.95
2023-05-24T19:10:37.944Z,2.10
2023-05-24T19:13:06.259Z,1.80
2023-05-24T19:15:35.170Z,1.67
2023-05-24T19:18:02.257Z,2.13
2023-05-24T19:20:29.156Z,2.47
2023-05-24T19:22:56.479Z,2.10
2023-05-24T19:25:23.236Z,2.50
2023-05-24T19:27:59.354Z,2.00
2023-05-24T19:30:27.369Z,1.88
2023-05-24T19:32:54.294Z,2.00
2023-05-24T19:35:21.156Z,2.28
2023-05-24T19:37:48.067Z,2.05
2023-05-24T19:40:14.906Z,1.75
2023-05-24T19:42:41.699Z,1.50
2023-05-24T19:45:09.676Z,1.75
2023-05-24T19:47:36.526Z,2.03
2023-05-24T19:50:03.585Z,2.30
2023-05-24T19:52:30.531Z,2.42
2023-05-24T19:54:57.468Z,2.20
2023-05-24T19:57:24.390Z,2.17
2023-05-24T19:59:51.375Z,1.98
2023-05-24T20:02:18.116Z,2.00
2023-05-24T20:04:44.870Z,1.98
2023-05-24T20:07:11.809Z,2.38
2023-05-24T20:09:38.918Z,2.05
2023-05-24T20:12:06.208Z,1.98
2023-05-24T20:14:33.068Z,2.22
2023-05-24T20:17:00.176Z,2.17
2023-05-24T20:19:28.142Z,1.85
2023-05-24T20:21:55.121Z,2.30
2023-05-24T20:24:21.994Z,2.17
2023-05-24T20:26:48.743Z,2.55
2023-05-24T20:29:15.669Z,2.17
2023-05-24T20:31:42.667Z,2.50
2023-05-24T20:34:09.532Z,2.33
2023-05-24T20:36:37.094Z,2.25
2023-05-24T20:39:04.200Z,2.70
2023-05-24T20:41:31.276Z,3.10
2023-05-24T20:43:58.352Z,3.25
2023-05-24T20:46:25.552Z,2.85
2023-05-24T20:48:53.712Z,3.00
2023-05-24T20:51:20.992Z,3.08
2023-05-24T20:53:49.067Z,2.50
2023-05-24T20:56:16.138Z,2.90
2023-05-24T20:58:43.927Z,2.53
2023-05-24T21:01:11.080Z,2.83
2023-05-24T21:03:38.357Z,3.72
2023-05-24T21:06:05.984Z,3.47
2023-05-24T21:08:33.049Z,3.00
2023-05-24T21:11:00.159Z,3.28
2023-05-24T21:13:28.632Z,3.40
2023-05-24T21:15:55.612Z,3.88
2023-05-24T21:18:22.723Z,3.70
2023-05-24T21:20:49.959Z,3.53
2023-05-24T21:23:16.952Z,3.97
2023-05-24T21:25:44.079Z,3.83
2023-05-24T21:28:11.378Z,3.38
2023-05-24T21:30:38.306Z,3.60
2023-05-24T21:33:05.591Z,3.80
2023-05-24T21:35:32.950Z,3.80
2023-05-24T21:38:00.457Z,3.85
2023-05-24T21:40:27.561Z,3.78
2023-05-24T21:42:54.684Z,4.05
2023-05-24T21:45:21.926Z,4.00
2023-05-24T21:47:48.924Z,3.75
2023-05-24T21:50:16.309Z,4.07
2023-05-24T21:52:43.318Z,4.88
2023-05-24T21:55:10.462Z,4.32
2023-05-24T21:57:40.537Z,4.22
2023-05-24T22:00:08.983Z,3.95
2023-05-24T22:02:37.005Z,4.25
2023-05-24T22:05:05.384Z,4.65
2023-05-24T22:07:32.804Z,5.00
2023-05-24T22:09:59.979Z,5.28
2023-05-24T22:12:26.871Z,4.95
2023-05-24T22:14:53.932Z,4.97
2023-05-24T22:17:22.773Z,4.53
2023-05-24T22:19:49.859Z,5.13
2023-05-24T22:22:19.733Z,4.25
2023-05-24T22:24:47.368Z,4.97
2023-05-24T22:27:14.887Z,4.40
2023-05-24T22:29:41.940Z,4.30
2023-05-24T22:32:09.338Z,4.78
2023-05-24T22:34:36.480Z,4.00
2023-05-24T22:37:03.617Z,4.40
2023-05-24T22:39:30.881Z,3.67
2023-05-24T22:41:57.706Z,3.80
2023-05-24T22:44:24.954Z,4.75
2023-05-24T22:46:54.828Z,4.07
2023-05-24T22:49:22.316Z,4.35
2023-05-24T22:51:51.138Z,4.00
2023-05-24T22:54:18.416Z,4.07
2023-05-24T22:56:46.566Z,4.93
2023-05-24T22:59:13.791Z,4.80
2023-05-24T23:01:41.202Z,5.97
2023-05-24T23:04:20.499Z,5.32
2023-05-24T23:06:49.655Z,4.50
2023-05-24T23:09:17.656Z,4.30
2023-05-24T23:11:46.403Z,5.05
2023-05-24T23:14:14.529Z,5.38
2023-05-24T23:16:45.499Z,5.70
2023-05-24T23:19:13.678Z,5.10
2023-05-24T23:21:42.702Z,4.88
2023-05-24T23:24:14.740Z,4.70
2023-05-24T23:26:42.893Z,5.45
2023-05-24T23:29:10.151Z,4.15
2023-05-24T23:31:37.136Z,4.32
2023-05-24T23:34:04.992Z,4.82
2023-05-24T23:36:32.059Z,4.90
2023-05-24T23:38:59.049Z,4.47
2023-05-24T23:41:27.025Z,4.65
2023-05-24T23:43:55.320Z,4.88
2023-05-24T23:46:22.558Z,4.35
2023-05-24T23:48:49.864Z,4.90
2023-05-24T23:51:17.206Z,4.18
2023-05-24T23:53:44.300Z,4.60
2023-05-24T23:56:11.847Z,4.53
2023-05-24T23:58:38.944Z,4.70
